Time;durP1;ratioP1;P1;durP2;ratioP2;P2;SDS_P1;SDS_P2;PMS_P1;PMS_P2;Temp;Humidity;BMP_temperature;BMP_pressure;BME280_temperature;BME280_humidity;BME280_pressure;Samples;Min_cycle;Max_cycle;Signal;HPM_P1;HPM_P2
2022/10/09 00:01:45;;;;;;;;;;;;;;;;;;5133057;27;2139;-53
2022/10/09 00:04:12;;;;;;;;;;;;;;;;;;5133153;27;1457;-55
2022/10/09 00:06:39;;;;;;;;;;;;;;;;;;5114678;27;1956;-52
2022/10/09 00:09:06;;;;;;;;;;;;;;;;;;5132906;27;1803;-47
2022/10/09 00:11:33;;;;;;;;;;;;;;;;;;5132777;27;1961;-53
2022/10/09 00:14:01;;;;;;;;;;;;;;;;;;5133176;27;1793;-52
2022/10/09 00:16:29;;;;;;;;;;;;;;;;;;5133081;27;1436;-54
2022/10/09 00:18:56;;;;;;;;;;;;;;;;;;5132925;27;2013;-52
2022/10/09 00:21:27;;;;;;;;;;;;;;;;;;5132637;27;1910;-50
2022/10/09 00:23:56;;;;;;;;;;;;;;;;;;5132654;27;1834;-46
2022/10/09 00:26:23;;;;;;;;;;;;;;;;;;5114125;27;2196;-46
2022/10/09 00:28:51;;;;;;;;;;;;;;;;;;5132620;27;1909;-45
2022/10/09 00:31:20;;;;;;;;;;;;;;;;;;5132715;27;1983;-51
2022/10/09 00:33:47;;;;;;;;;;;;;;;;;;5132539;27;1480;-54
2022/10/09 00:36:16;;;;;;;;;;;;;;;;;;5132421;27;2194;-52
2022/10/09 00:38:44;;;;;;;;;;;;;;;;;;5113879;27;1823;-50
2022/10/09 00:41:16;;;;;;;;;;;;;;;;;;5114084;27;1918;-51
2022/10/09 00:43:51;;;;;;;;;;;;;;;;;;5111783;27;1803;-47
2022/10/09 00:46:27;;;;;;;;;;;;;;;;;;5111817;28;2133;-52
2022/10/09 00:49:00;;;;;;;;;;;;;;;;;;5111709;28;2252;-52
2022/10/09 00:51:28;;;;;;;;;;;;;;;;;;5111887;28;2327;-50
2022/10/09 00:53:56;;;;;;;;;;;;;;;;;;5111770;28;2079;-47
2022/10/09 00:56:23;;;;;;;;;;;;;;;;;;5111588;28;1993;-51
2022/10/09 00:58:52;;;;;;;;;;;;;;;;;;5111687;28;1670;-54
2022/10/09 01:01:19;;;;;;;;;;;;;;;;;;5111425;28;2440;-54
2022/10/09 01:03:47;;;;;;;;;;;;;;;;;;5093383;28;1767;-53
2022/10/09 01:06:15;;;;;;;;;;;;;;;;;;5111503;28;2087;-53
2022/10/09 01:08:52;;;;;;;;;;;;;;;;;;5111635;28;1734;-46
2022/10/09 01:11:42;;;;;;;;;;;;;;;;;;5111354;28;2077;-44
2022/10/09 01:14:17;;;;;;;;;;;;;;;;;;5098677;28;2119;-52
2022/10/09 01:17:04;;;;;;;;;;;;;;;;;;5111483;28;1857;-51
2022/10/09 01:20:00;;;;;;;;;;;;;;;;;;5094502;28;1959;-45
2022/10/09 01:22:46;;;;;;;;;;;;;;;;;;5111311;28;1916;-47
2022/10/09 01:25:18;;;;;;;;;;;;;;;;;;5111206;28;1790;-49
2022/10/09 01:27:45;;;;;;;;;;;;;;;;;;5111307;28;1932;-49
2022/10/09 01:30:13;;;;;;;;;;;;;;;;;;5111487;28;2099;-53
2022/10/09 01:32:42;;;;;;;;;;;;;;;;;;5092849;28;2323;-53
2022/10/09 01:35:11;;;;;;;;;;;;;;;;;;5111231;28;1603;-52
2022/10/09 01:37:39;;;;;;;;;;;;;;;;;;5111047;28;2035;-48
2022/10/09 01:40:07;;;;;;;;;;;;;;;;;;5111090;28;1925;-52
2022/10/09 01:42:35;;;;;;;;;;;;;;;;;;5120962;28;2075;-54
2022/10/09 01:45:02;;;;;;;;;;;;;;;;;;5131889;28;1383;-44
2022/10/09 01:47:33;;;;;;;;;;;;;;;;;;5131562;28;1363;-50
2022/10/09 01:50:03;;;;;;;;;;;;;;;;;;5131935;28;2114;-51
2022/10/09 01:52:31;;;;;;;;;;;;;;;;;;5131649;28;1727;-51
2022/10/09 01:55:12;;;;;;;;;;;;;;;;;;5134075;27;1849;-47
2022/10/09 01:57:44;;;;;;;;;;;;;;;;;;5135471;27;1804;-53
2022/10/09 02:00:12;;;;;;;;;;;;;;;;;;5135436;27;2219;-53
2022/10/09 02:02:40;;;;;;;;;;;;;;;;;;5135702;27;1911;-47
2022/10/09 02:05:09;;;;;;;;;;;;;;;;;;5116918;27;2002;-54
2022/10/09 02:07:37;;;;;;;;;;;;;;;;;;5117370;27;2299;-51
2022/10/09 02:10:05;;;;;;;;;;;;;;;;;;5135310;27;1838;-47
2022/10/09 02:12:35;;;;;;;;;;;;;;;;;;5135474;27;2134;-48
2022/10/09 02:15:03;;;;;;;;;;;;;;;;;;5135412;27;1746;-50
2022/10/09 02:17:32;;;;;;;;;;;;;;;;;;5135242;27;1855;-51
2022/10/09 02:20:02;;;;;;;;;;;;;;;;;;5135350;27;1901;-48
2022/10/09 02:22:30;;;;;;;;;;;;;;;;;;5135204;27;2123;-50
2022/10/09 02:24:58;;;;;;;;;;;;;;;;;;5134736;27;2219;-54
2022/10/09 02:27:26;;;;;;;;;;;;;;;;;;5123874;27;1908;-54
2022/10/09 02:29:53;;;;;;;;;;;;;;;;;;5096117;28;2042;-46
2022/10/09 02:32:21;;;;;;;;;;;;;;;;;;5114445;28;1990;-52
2022/10/09 02:34:48;;;;;;;;;;;;;;;;;;5114384;28;1806;-54
2022/10/09 02:37:16;;;;;;;;;;;;;;;;;;5114414;28;2007;-47
2022/10/09 02:39:43;;;;;;;;;;;;;;;;;;5113840;28;1911;-48
2022/10/09 02:42:10;;;;;;;;;;;;;;;;;;5120414;27;1888;-45
2022/10/09 02:44:37;;;;;;;;;;;;;;;;;;5134768;27;1800;-53
2022/10/09 02:47:04;;;;;;;;;;;;;;;;;;5116216;27;1918;-45
2022/10/09 02:49:32;;;;;;;;;;;;;;;;;;5134645;27;1797;-45
2022/10/09 02:51:59;;;;;;;;;;;;;;;;;;5134381;27;1344;-52
2022/10/09 02:54:26;;;;;;;;;;;;;;;;;;5134323;27;1726;-55
2022/10/09 02:56:54;;;;;;;;;;;;;;;;;;5134420;27;2014;-44
2022/10/09 02:59:21;;;;;;;;;;;;;;;;;;5134100;27;2014;-44
2022/10/09 03:01:49;;;;;;;;;;;;;;;;;;5115392;27;2208;-46
2022/10/09 03:04:16;;;;;;;;;;;;;;;;;;5134359;27;2022;-47
2022/10/09 03:06:44;;;;;;;;;;;;;;;;;;5133197;27;1872;-48
2022/10/09 03:09:11;;;;;;;;;;;;;;;;;;5134320;27;2115;-49
2022/10/09 03:11:39;;;;;;;;;;;;;;;;;;5133854;27;1885;-45
2022/10/09 03:14:06;;;;;;;;;;;;;;;;;;5116359;27;1946;-51
2022/10/09 03:16:33;;;;;;;;;;;;;;;;;;5134235;27;2112;-50
2022/10/09 03:19:01;;;;;;;;;;;;;;;;;;5133724;27;1964;-45
2022/10/09 03:21:28;;;;;;;;;;;;;;;;;;5133804;27;1983;-49
2022/10/09 03:23:56;;;;;;;;;;;;;;;;;;5133857;27;1982;-51
2022/10/09 03:26:24;;;;;;;;;;;;;;;;;;5122045;27;2157;-52
2022/10/09 03:28:52;;;;;;;;;;;;;;;;;;5113217;28;1229;-48
2022/10/09 03:31:21;;;;;;;;;;;;;;;;;;5113190;28;1582;-52
2022/10/09 03:34:09;;;;;;;;;;;;;;;;;;5113266;28;1679;-45
2022/10/09 03:36:37;;;;;;;;;;;;;;;;;;5113165;28;1859;-54
2022/10/09 03:39:04;;;;;;;;;;;;;;;;;;5113228;28;2000;-49
2022/10/09 03:41:31;;;;;;;;;;;;;;;;;;5113570;27;1997;-53
2022/10/09 03:43:59;;;;;;;;;;;;;;;;;;5133442;27;1964;-47
2022/10/09 03:46:26;;;;;;;;;;;;;;;;;;5133477;27;1969;-53
2022/10/09 03:48:54;;;;;;;;;;;;;;;;;;5098015;27;1882;-50
2022/10/09 03:51:21;;;;;;;;;;;;;;;;;;5133310;27;1975;-54
2022/10/09 03:53:48;;;;;;;;;;;;;;;;;;5132935;27;2102;-46
2022/10/09 03:56:16;;;;;;;;;;;;;;;;;;5133334;27;1971;-55
2022/10/09 03:58:43;;;;;;;;;;;;;;;;;;5133059;27;1399;-51
2022/10/09 04:01:11;;;;;;;;;;;;;;;;;;5133081;27;2046;-46
2022/10/09 04:03:38;;;;;;;;;;;;;;;;;;5133283;27;2143;-45
2022/10/09 04:06:06;;;;;;;;;;;;;;;;;;5133298;27;1835;-48
2022/10/09 04:08:34;;;;;;;;;;;;;;;;;;5133098;27;1905;-47
2022/10/09 04:11:02;;;;;;;;;;;;;;;;;;5132955;27;2142;-48
2022/10/09 04:13:31;;;;;;;;;;;;;;;;;;5132668;27;2030;-45
2022/10/09 04:16:04;;;;;;;;;;;;;;;;;;5132827;27;1970;-55
2022/10/09 04:18:35;;;;;;;;;;;;;;;;;;5132856;27;1814;-45
2022/10/09 04:21:04;;;;;;;;;;;;;;;;;;5132788;27;2189;-49
2022/10/09 04:23:31;;;;;;;;;;;;;;;;;;5132707;27;1923;-52
2022/10/09 04:25:58;;;;;;;;;;;;;;;;;;5132351;27;2012;-55
2022/10/09 04:28:27;;;;;;;;;;;;;;;;;;5132522;27;1456;-54
2022/10/09 04:30:56;;;;;;;;;;;;;;;;;;5132410;27;2079;-49
2022/10/09 04:33:24;;;;;;;;;;;;;;;;;;5132602;27;1963;-46
2022/10/09 04:35:52;;;;;;;;;;;;;;;;;;5132265;27;2248;-54
2022/10/09 04:38:20;;;;;;;;;;;;;;;;;;5132206;27;1911;-49
2022/10/09 04:40:56;;;;;;;;;;;;;;;;;;5132292;27;1969;-47
2022/10/09 04:43:23;;;;;;;;;;;;;;;;;;5115360;27;1882;-53
2022/10/09 04:45:51;;;;;;;;;;;;;;;;;;5111763;28;1964;-44
2022/10/09 04:48:19;;;;;;;;;;;;;;;;;;5111695;28;2206;-44
2022/10/09 04:50:46;;;;;;;;;;;;;;;;;;5111558;28;1717;-46
2022/10/09 04:53:14;;;;;;;;;;;;;;;;;;5111113;28;1963;-44
2022/10/09 04:55:42;;;;;;;;;;;;;;;;;;5111963;28;1965;-47
2022/10/09 04:58:11;;;;;;;;;;;;;;;;;;5112091;28;1271;-48
2022/10/09 05:00:39;;;;;;;;;;;;;;;;;;5111588;28;2008;-55
2022/10/09 05:03:07;;;;;;;;;;;;;;;;;;5111415;28;1834;-53
2022/10/09 05:05:34;;;;;;;;;;;;;;;;;;5111389;28;2144;-47
2022/10/09 05:08:02;;;;;;;;;;;;;;;;;;5111555;28;2054;-47
2022/10/09 05:10:30;;;;;;;;;;;;;;;;;;5111494;28;1669;-52
2022/10/09 05:12:58;;;;;;;;;;;;;;;;;;5093142;28;1569;-55
2022/10/09 05:15:26;;;;;;;;;;;;;;;;;;5111462;28;1799;-54
2022/10/09 05:17:54;;;;;;;;;;;;;;;;;;5111187;28;1887;-54
2022/10/09 05:20:21;;;;;;;;;;;;;;;;;;5093244;28;2017;-54
2022/10/09 05:22:49;;;;;;;;;;;;;;;;;;5111388;28;1958;-45
2022/10/09 05:25:16;;;;;;;;;;;;;;;;;;5111170;28;2089;-50
2022/10/09 05:27:44;;;;;;;;;;;;;;;;;;5111392;28;1712;-47
2022/10/09 05:30:11;;;;;;;;;;;;;;;;;;5096340;28;1711;-49
2022/10/09 05:32:38;;;;;;;;;;;;;;;;;;5115260;28;2013;-46
2022/10/09 05:35:06;;;;;;;;;;;;;;;;;;5115532;28;2064;-55
2022/10/09 05:37:33;;;;;;;;;;;;;;;;;;5115428;28;1776;-53
2022/10/09 05:40:00;;;;;;;;;;;;;;;;;;5115294;28;1940;-56
2022/10/09 05:42:28;;;;;;;;;;;;;;;;;;5131714;27;1973;-52
2022/10/09 05:44:55;;;;;;;;;;;;;;;;;;5135573;27;2192;-53
2022/10/09 05:47:22;;;;;;;;;;;;;;;;;;5135787;27;1639;-46
2022/10/09 05:49:49;;;;;;;;;;;;;;;;;;5135649;27;1757;-53
2022/10/09 05:52:16;;;;;;;;;;;;;;;;;;5135512;27;2210;-51
2022/10/09 05:54:44;;;;;;;;;;;;;;;;;;5135875;27;2235;-55
2022/10/09 05:57:11;;;;;;;;;;;;;;;;;;5135725;27;2172;-54
2022/10/09 05:59:38;;;;;;;;;;;;;;;;;;5135221;27;1764;-48
2022/10/09 06:02:05;;;;;;;;;;;;;;;;;;5135467;27;1980;-51
2022/10/09 06:04:33;;;;;;;;;;;;;;;;;;5135312;27;2175;-55
2022/10/09 06:07:00;;;;;;;;;;;;;;;;;;5135519;27;2138;-57
2022/10/09 06:09:27;;;;;;;;;;;;;;;;;;5135298;27;1934;-49
2022/10/09 06:11:54;;;;;;;;;;;;;;;;;;5135225;27;2027;-46
2022/10/09 06:14:23;;;;;;;;;;;;;;;;;;5135286;27;2001;-52
2022/10/09 06:16:50;;;;;;;;;;;;;;;;;;5135200;27;1801;-52
2022/10/09 06:19:18;;;;;;;;;;;;;;;;;;5135277;27;1975;-45
2022/10/09 06:21:46;;;;;;;;;;;;;;;;;;5135025;27;1970;-55
2022/10/09 06:24:21;;;;;;;;;;;;;;;;;;5135470;27;1725;-52
2022/10/09 06:26:53;;;;;;;;;;;;;;;;;;5150087;27;1873;-55
2022/10/09 06:29:21;;;;;;;;;;;;;;;;;;5134969;27;2006;-54
2022/10/09 06:31:48;;;;;;;;;;;;;;;;;;5134847;27;2157;-45
2022/10/09 06:34:15;;;;;;;;;;;;;;;;;;5135157;27;2242;-55
2022/10/09 06:36:42;;;;;;;;;;;;;;;;;;5123537;27;1727;-53
2022/10/09 06:39:10;;;;;;;;;;;;;;;;;;5113908;28;1911;-55
2022/10/09 06:41:37;;;;;;;;;;;;;;;;;;5114702;27;2249;-52
2022/10/09 06:44:27;;;;;;;;;;;;;;;;;;5134526;27;1835;-53
2022/10/09 06:46:54;;;;;;;;;;;;;;;;;;5134616;27;2007;-51
2022/10/09 06:49:22;;;;;;;;;;;;;;;;;;5134565;27;2000;-55
2022/10/09 06:51:49;;;;;;;;;;;;;;;;;;5134404;27;1828;-46
2022/10/09 06:54:16;;;;;;;;;;;;;;;;;;5134625;27;1660;-55
2022/10/09 06:56:44;;;;;;;;;;;;;;;;;;5134272;27;1924;-55
2022/10/09 06:59:12;;;;;;;;;;;;;;;;;;5134475;27;1947;-55
2022/10/09 07:01:40;;;;;;;;;;;;;;;;;;5134178;27;2291;-54
2022/10/09 07:04:12;;;;;;;;;;;;;;;;;;5134017;27;1783;-45
2022/10/09 07:06:40;;;;;;;;;;;;;;;;;;5134228;27;1826;-45
2022/10/09 07:09:09;;;;;;;;;;;;;;;;;;5134182;27;1863;-50
2022/10/09 07:11:41;;;;;;;;;;;;;;;;;;5134054;27;2009;-45
2022/10/09 07:14:09;;;;;;;;;;;;;;;;;;5134066;27;2083;-56
2022/10/09 07:16:38;;;;;;;;;;;;;;;;;;5134017;27;1695;-46
2022/10/09 07:19:10;;;;;;;;;;;;;;;;;;5134012;27;1247;-44
2022/10/09 07:21:38;;;;;;;;;;;;;;;;;;5133817;27;1902;-53
2022/10/09 07:24:05;;;;;;;;;;;;;;;;;;5133749;27;1234;-52
2022/10/09 07:26:34;;;;;;;;;;;;;;;;;;5115716;27;1808;-55
2022/10/09 07:29:01;;;;;;;;;;;;;;;;;;5133583;27;1632;-45
2022/10/09 07:31:31;;;;;;;;;;;;;;;;;;5133874;27;2387;-47
2022/10/09 07:33:58;;;;;;;;;;;;;;;;;;5133693;27;2148;-47
2022/10/09 07:36:26;;;;;;;;;;;;;;;;;;5133670;27;2176;-55
2022/10/09 07:38:54;;;;;;;;;;;;;;;;;;5133499;27;1919;-53
2022/10/09 07:41:22;;;;;;;;;;;;;;;;;;5133774;27;1934;-56
2022/10/09 07:43:49;;;;;;;;;;;;;;;;;;5133408;27;1906;-57
2022/10/09 07:46:18;;;;;;;;;;;;;;;;;;5133462;27;2010;-49
2022/10/09 07:48:46;;;;;;;;;;;;;;;;;;5133597;27;1703;-57
2022/10/09 07:51:17;;;;;;;;;;;;;;;;;;5133293;27;1982;-57
2022/10/09 07:53:45;;;;;;;;;;;;;;;;;;5132832;27;1909;-49
2022/10/09 07:56:13;;;;;;;;;;;;;;;;;;5133060;27;1970;-55
2022/10/09 07:58:41;;;;;;;;;;;;;;;;;;5133304;27;1858;-55
2022/10/09 08:01:09;;;;;;;;;;;;;;;;;;5133050;27;1978;-53
2022/10/09 08:03:37;;;;;;;;;;;;;;;;;;5132984;27;2197;-54
2022/10/09 08:06:04;;;;;;;;;;;;;;;;;;5133126;27;2158;-49
2022/10/09 08:08:32;;;;;;;;;;;;;;;;;;5133032;27;1997;-53
2022/10/09 08:10:59;;;;;;;;;;;;;;;;;;5133014;27;2047;-53
2022/10/09 08:13:26;;;;;;;;;;;;;;;;;;5132860;27;1634;-52
2022/10/09 08:15:56;;;;;;;;;;;;;;;;;;5132963;27;2179;-45
2022/10/09 08:18:23;;;;;;;;;;;;;;;;;;5132961;27;1620;-46
2022/10/09 08:21:01;;;;;;;;;;;;;;;;;;5132840;27;1890;-56
2022/10/09 08:23:28;;;;;;;;;;;;;;;;;;5132668;27;2129;-55
2022/10/09 08:25:57;;;;;;;;;;;;;;;;;;5132632;27;2322;-56
2022/10/09 08:28:24;;;;;;;;;;;;;;;;;;5132830;27;2015;-53
2022/10/09 08:30:51;;;;;;;;;;;;;;;;;;5132786;27;1876;-54
2022/10/09 08:33:20;;;;;;;;;;;;;;;;;;5132594;27;1878;-52
2022/10/09 08:35:48;;;;;;;;;;;;;;;;;;5132278;27;1923;-55
2022/10/09 08:38:16;;;;;;;;;;;;;;;;;;5132541;27;2346;-51
2022/10/09 08:41:03;;;;;;;;;;;;;;;;;;5132077;27;2119;-53
2022/10/09 08:43:34;;;;;;;;;;;;;;;;;;5114106;27;2104;-56
2022/10/09 08:46:05;;;;;;;;;;;;;;;;;;5111735;28;2076;-54
2022/10/09 08:48:35;;;;;;;;;;;;;;;;;;5111496;28;1726;-53
2022/10/09 08:51:04;;;;;;;;;;;;;;;;;;5111712;28;1953;-54
2022/10/09 08:53:41;;;;;;;;;;;;;;;;;;5119677;27;2176;-55
2022/10/09 08:56:12;;;;;;;;;;;;;;;;;;5132347;27;2158;-57
2022/10/09 08:58:40;;;;;;;;;;;;;;;;;;5132066;27;2164;-57
2022/10/09 09:01:10;;;;;;;;;;;;;;;;;;5131902;27;1849;-54
2022/10/09 09:03:37;;;;;;;;;;;;;;;;;;5131247;27;1976;-56
2022/10/09 09:06:23;;;;;;;;;;;;;;;;;;5131890;27;1831;-56
2022/10/09 09:08:50;;;;;;;;;;;;;;;;;;5131913;27;1808;-52
2022/10/09 09:11:19;;;;;;;;;;;;;;;;;;5131839;28;1878;-55
2022/10/09 09:13:51;;;;;;;;;;;;;;;;;;5131926;28;1897;-49
2022/10/09 09:16:40;;;;;;;;;;;;;;;;;;5147785;27;2138;-55
2022/10/09 09:19:33;;;;;;;;;;;;;;;;;;5131949;28;1542;-55
2022/10/09 09:22:00;;;;;;;;;;;;;;;;;;5131787;28;1911;-54
2022/10/09 09:24:39;;;;;;;;;;;;;;;;;;5131975;28;2310;-49
2022/10/09 09:27:13;;;;;;;;;;;;;;;;;;5131797;28;2097;-55
2022/10/09 09:29:44;;;;;;;;;;;;;;;;;;5131588;28;1857;-53
2022/10/09 09:32:18;;;;;;;;;;;;;;;;;;5131652;28;2148;-54
2022/10/09 09:34:46;;;;;;;;;;;;;;;;;;5131790;28;1701;-45
2022/10/09 09:37:14;;;;;;;;;;;;;;;;;;5131844;28;1366;-54
2022/10/09 09:39:41;;;;;;;;;;;;;;;;;;5131558;28;2029;-52
2022/10/09 09:42:29;;;;;;;;;;;;;;;;;;5122201;28;1921;-51
2022/10/09 09:45:02;;;;;;;;;;;;;;;;;;5111277;28;2065;-52
2022/10/09 09:47:33;;;;;;;;;;;;;;;;;;5111362;28;1815;-52
2022/10/09 09:50:04;;;;;;;;;;;;;;;;;;5111060;28;2004;-46
2022/10/09 09:52:35;;;;;;;;;;;;;;;;;;5111054;28;2414;-54
2022/10/09 09:55:03;;;;;;;;;;;;;;;;;;5111013;28;1461;-48
2022/10/09 09:57:35;;;;;;;;;;;;;;;;;;5111023;28;1863;-56
2022/10/09 10:00:08;;;;;;;;;;;;;;;;;;5111245;28;1941;-56
2022/10/09 10:02:35;;;;;;;;;;;;;;;;;;5110861;28;1991;-54
2022/10/09 10:05:25;;;;;;;;;;;;;;;;;;5111029;28;1872;-51
2022/10/09 10:07:53;;;;;;;;;;;;;;;;;;5110915;28;2038;-52
2022/10/09 10:10:22;;;;;;;;;;;;;;;;;;5110946;28;1753;-52
2022/10/09 10:12:51;;;;;;;;;;;;;;;;;;5110941;28;1955;-55
2022/10/09 10:15:21;;;;;;;;;;;;;;;;;;5112138;28;1741;-51
2022/10/09 10:17:54;;;;;;;;;;;;;;;;;;5114543;28;2064;-55
2022/10/09 10:20:22;;;;;;;;;;;;;;;;;;5114724;28;2025;-54
2022/10/09 10:22:51;;;;;;;;;;;;;;;;;;5114489;28;2251;-54
2022/10/09 10:25:19;;;;;;;;;;;;;;;;;;5114585;28;2130;-49
2022/10/09 10:27:49;;;;;;;;;;;;;;;;;;5114422;28;2063;-48
2022/10/09 10:30:18;;;;;;;;;;;;;;;;;;5114422;28;2079;-52
2022/10/09 10:32:54;;;;;;;;;;;;;;;;;;5114429;28;1821;-51
2022/10/09 10:35:23;;;;;;;;;;;;;;;;;;5114364;28;1974;-53
2022/10/09 10:38:06;;;;;;;;;;;;;;;;;;5114399;28;1725;-48
2022/10/09 10:40:40;;;;;;;;;;;;;;;;;;5114171;28;1768;-54
2022/10/09 10:43:08;;;;;;;;;;;;;;;;;;5128564;27;1994;-51
2022/10/09 10:45:53;;;;;;;;;;;;;;;;;;5121012;27;2091;-49
2022/10/09 10:48:23;;;;;;;;;;;;;;;;;;5114235;28;1470;-54
2022/10/09 10:50:57;;;;;;;;;;;;;;;;;;5113916;28;1721;-51
2022/10/09 10:53:32;;;;;;;;;;;;;;;;;;5113952;28;1520;-55
2022/10/09 10:56:16;;;;;;;;;;;;;;;;;;5113956;28;2261;-52
2022/10/09 10:58:43;;;;;;;;;;;;;;;;;;5113855;28;2248;-50
2022/10/09 11:01:17;;;;;;;;;;;;;;;;;;5113989;28;1974;-54
2022/10/09 11:04:03;;;;;;;;;;;;;;;;;;5113485;28;1955;-54
2022/10/09 11:06:38;;;;;;;;;;;;;;;;;;5113726;28;1954;-55
2022/10/09 11:09:32;;;;;;;;;;;;;;;;;;5113618;28;2235;-56
2022/10/09 11:12:12;;;;;;;;;;;;;;;;;;5085023;27;1871;-54
2022/10/09 11:14:59;;;;;;;;;;;;;;;;;;5134177;27;2114;-55
2022/10/09 11:17:36;;;;;;;;;;;;;;;;;;5134359;27;1829;-55
2022/10/09 11:20:11;;;;;;;;;;;;;;;;;;5133783;27;1564;-48
2022/10/09 11:22:58;;;;;;;;;;;;;;;;;;5133721;27;1909;-56
2022/10/09 11:25:28;;;;;;;;;;;;;;;;;;5133933;27;1910;-54
2022/10/09 11:28:11;;;;;;;;;;;;;;;;;;5133216;27;1981;-56
2022/10/09 11:30:43;;;;;;;;;;;;;;;;;;5133284;27;2003;-51
2022/10/09 11:33:33;;;;;;;;;;;;;;;;;;5133737;27;1942;-54
2022/10/09 11:36:04;;;;;;;;;;;;;;;;;;5133750;27;1980;-51
2022/10/09 11:38:37;;;;;;;;;;;;;;;;;;5115259;27;1848;-54
2022/10/09 11:41:05;;;;;;;;;;;;;;;;;;5133609;27;2127;-55
2022/10/09 11:43:33;;;;;;;;;;;;;;;;;;5133434;27;1966;-54
2022/10/09 11:46:00;;;;;;;;;;;;;;;;;;5133495;27;2308;-47
2022/10/09 11:48:32;;;;;;;;;;;;;;;;;;5133862;27;1792;-45
2022/10/09 11:51:07;;;;;;;;;;;;;;;;;;5133391;27;1724;-45
2022/10/09 11:53:37;;;;;;;;;;;;;;;;;;5132954;27;1935;-55
2022/10/09 11:56:17;;;;;;;;;;;;;;;;;;5133270;27;2135;-55
2022/10/09 11:58:55;;;;;;;;;;;;;;;;;;5133403;27;1947;-55
2022/10/09 12:01:23;;;;;;;;;;;;;;;;;;5133218;27;1940;-54
2022/10/09 12:04:05;;;;;;;;;;;;;;;;;;5132955;27;1902;-57
2022/10/09 12:06:43;;;;;;;;;;;;;;;;;;5132803;27;1852;-46
2022/10/09 12:09:23;;;;;;;;;;;;;;;;;;5133004;27;1904;-53
2022/10/09 12:11:58;;;;;;;;;;;;;;;;;;5132917;27;1623;-57
2022/10/09 12:14:28;;;;;;;;;;;;;;;;;;5133050;27;1833;-52
2022/10/09 12:16:56;;;;;;;;;;;;;;;;;;5132722;27;1707;-55
2022/10/09 12:19:25;;;;;;;;;;;;;;;;;;5132806;27;1374;-56
2022/10/09 12:21:55;;;;;;;;;;;;;;;;;;5132784;27;2099;-56
2022/10/09 12:24:25;;;;;;;;;;;;;;;;;;5132710;27;1906;-55
2022/10/09 12:26:54;;;;;;;;;;;;;;;;;;5132762;27;1848;-54
2022/10/09 12:29:30;;;;;;;;;;;;;;;;;;5131933;27;1891;-57
2022/10/09 12:32:02;;;;;;;;;;;;;;;;;;5132679;27;2147;-48
2022/10/09 12:34:32;;;;;;;;;;;;;;;;;;5132781;27;2086;-57
2022/10/09 12:37:08;;;;;;;;;;;;;;;;;;5132671;27;1806;-52
2022/10/09 12:39:36;;;;;;;;;;;;;;;;;;5131276;27;2064;-55
2022/10/09 12:42:03;;;;;;;;;;;;;;;;;;5126990;27;2120;-56
2022/10/09 12:44:34;;;;;;;;;;;;;;;;;;5111972;28;1976;-52
2022/10/09 12:47:06;;;;;;;;;;;;;;;;;;5111588;28;2098;-53
2022/10/09 12:49:33;;;;;;;;;;;;;;;;;;5109995;28;1917;-56
2022/10/09 12:52:01;;;;;;;;;;;;;;;;;;5109807;28;1948;-45
2022/10/09 12:54:29;;;;;;;;;;;;;;;;;;5110091;28;2132;-55
2022/10/09 12:56:58;;;;;;;;;;;;;;;;;;5110502;28;2187;-49
2022/10/09 12:59:26;;;;;;;;;;;;;;;;;;5109983;28;2017;-56
2022/10/09 13:01:55;;;;;;;;;;;;;;;;;;5109933;28;1625;-56
2022/10/09 13:04:33;;;;;;;;;;;;;;;;;;5111478;28;1976;-56
2022/10/09 13:07:04;;;;;;;;;;;;;;;;;;5111843;28;2112;-53
2022/10/09 13:09:33;;;;;;;;;;;;;;;;;;5111067;28;1959;-45
2022/10/09 13:12:15;;;;;;;;;;;;;;;;;;5111650;28;1914;-46
2022/10/09 13:14:44;;;;;;;;;;;;;;;;;;5093200;28;2060;-54
2022/10/09 13:17:40;;;;;;;;;;;;;;;;;;5093280;28;1798;-54
2022/10/09 13:20:12;;;;;;;;;;;;;;;;;;5090780;28;1760;-50
2022/10/09 13:22:40;;;;;;;;;;;;;;;;;;5111078;28;1976;-47
2022/10/09 13:25:08;;;;;;;;;;;;;;;;;;5111516;28;1756;-54
2022/10/09 13:27:37;;;;;;;;;;;;;;;;;;5111159;28;1966;-55
2022/10/09 13:30:05;;;;;;;;;;;;;;;;;;5111394;28;1885;-55
2022/10/09 13:32:32;;;;;;;;;;;;;;;;;;5111354;28;2105;-51
2022/10/09 13:34:59;;;;;;;;;;;;;;;;;;5111549;28;1636;-53
2022/10/09 13:37:26;;;;;;;;;;;;;;;;;;5111627;28;1882;-54
2022/10/09 13:39:58;;;;;;;;;;;;;;;;;;5111085;28;2107;-47
2022/10/09 13:42:29;;;;;;;;;;;;;;;;;;5119963;28;1856;-52
2022/10/09 13:44:56;;;;;;;;;;;;;;;;;;5131846;28;1894;-53
2022/10/09 13:47:23;;;;;;;;;;;;;;;;;;5131760;28;1870;-45
2022/10/09 13:49:51;;;;;;;;;;;;;;;;;;5132334;27;1981;-47
2022/10/09 13:52:18;;;;;;;;;;;;;;;;;;5135694;27;1841;-55
2022/10/09 13:54:45;;;;;;;;;;;;;;;;;;5135482;27;1930;-55
2022/10/09 13:57:13;;;;;;;;;;;;;;;;;;5135721;27;1714;-48
2022/10/09 13:59:41;;;;;;;;;;;;;;;;;;5135561;27;2232;-50
2022/10/09 14:02:09;;;;;;;;;;;;;;;;;;5135567;27;1908;-52
2022/10/09 14:04:36;;;;;;;;;;;;;;;;;;5135619;27;1911;-54
2022/10/09 14:07:15;;;;;;;;;;;;;;;;;;5135203;27;2040;-50
2022/10/09 14:10:26;;;;;;;;;;;;;;;;;;5135313;27;1811;-56
2022/10/09 14:13:33;;;;;;;;;;;;;;;;;;5134993;27;1890;-46
2022/10/09 14:16:41;;;;;;;;;;;;;;;;;;5135313;27;1715;-55
2022/10/09 14:19:47;;;;;;;;;;;;;;;;;;5134878;27;1794;-56
2022/10/09 14:22:54;;;;;;;;;;;;;;;;;;5135147;27;1801;-43
2022/10/09 14:26:02;;;;;;;;;;;;;;;;;;5134694;27;1847;-54
2022/10/09 14:29:06;;;;;;;;;;;;;;;;;;5114281;28;1767;-55
2022/10/09 14:32:03;;;;;;;;;;;;;;;;;;5114381;28;1617;-55
2022/10/09 14:35:11;;;;;;;;;;;;;;;;;;5114367;28;1231;-55
2022/10/09 14:38:20;;;;;;;;;;;;;;;;;;5113945;28;1666;-54
2022/10/09 14:41:29;;;;;;;;;;;;;;;;;;5114113;28;1269;-55
2022/10/09 14:44:33;;;;;;;;;;;;;;;;;;5114122;28;1960;-49
2022/10/09 14:47:36;;;;;;;;;;;;;;;;;;5114002;28;2077;-54
2022/10/09 14:50:50;;;;;;;;;;;;;;;;;;5114064;28;1955;-56
2022/10/09 14:53:57;;;;;;;;;;;;;;;;;;5112639;28;1496;-44
2022/10/09 14:57:07;;;;;;;;;;;;;;;;;;5113811;28;1850;-49
2022/10/09 15:00:06;;;;;;;;;;;;;;;;;;5113909;28;1869;-48
2022/10/09 15:03:13;;;;;;;;;;;;;;;;;;5112670;28;1901;-43
2022/10/09 15:06:07;;;;;;;;;;;;;;;;;;5113663;28;2100;-44
2022/10/09 15:08:39;;;;;;;;;;;;;;;;;;5113685;28;1754;-50
2022/10/09 15:11:07;;;;;;;;;;;;;;;;;;5113503;28;1770;-44
2022/10/09 15:13:35;;;;;;;;;;;;;;;;;;5113578;28;2234;-46
2022/10/09 15:16:07;;;;;;;;;;;;;;;;;;5113482;28;2211;-47
2022/10/09 15:18:34;;;;;;;;;;;;;;;;;;5113425;28;1984;-51
2022/10/09 15:21:02;;;;;;;;;;;;;;;;;;5113686;28;1273;-44
2022/10/09 15:23:30;;;;;;;;;;;;;;;;;;5113406;28;2619;-49
2022/10/09 15:25:59;;;;;;;;;;;;;;;;;;5113595;28;1827;-43
2022/10/09 15:28:31;;;;;;;;;;;;;;;;;;5113040;27;1725;-47
2022/10/09 15:31:04;;;;;;;;;;;;;;;;;;5113226;28;2212;-47
2022/10/09 15:33:32;;;;;;;;;;;;;;;;;;5113039;28;1953;-44
2022/10/09 15:36:00;;;;;;;;;;;;;;;;;;5113469;28;1814;-49
2022/10/09 15:38:27;;;;;;;;;;;;;;;;;;5113444;28;1985;-45
2022/10/09 15:40:55;;;;;;;;;;;;;;;;;;5112885;28;1965;-44
2022/10/09 15:43:23;;;;;;;;;;;;;;;;;;5129761;27;2276;-47
2022/10/09 15:45:52;;;;;;;;;;;;;;;;;;5115563;27;2139;-45
2022/10/09 15:48:21;;;;;;;;;;;;;;;;;;5133645;27;1902;-49
2022/10/09 15:50:50;;;;;;;;;;;;;;;;;;5133539;27;1993;-44
2022/10/09 15:53:20;;;;;;;;;;;;;;;;;;5133019;27;1821;-45
2022/10/09 15:55:48;;;;;;;;;;;;;;;;;;5133061;27;1777;-46
2022/10/09 15:58:16;;;;;;;;;;;;;;;;;;5133120;27;1490;-43
2022/10/09 16:00:48;;;;;;;;;;;;;;;;;;5133209;27;1950;-43
2022/10/09 16:03:16;;;;;;;;;;;;;;;;;;5133210;27;2088;-48
2022/10/09 16:05:49;;;;;;;;;;;;;;;;;;5132696;27;1830;-55
2022/10/09 16:08:17;;;;;;;;;;;;;;;;;;5133218;27;1698;-50
2022/10/09 16:10:46;;;;;;;;;;;;;;;;;;5133234;27;2034;-56
2022/10/09 16:13:16;;;;;;;;;;;;;;;;;;5132913;27;2173;-46
2022/10/09 16:15:45;;;;;;;;;;;;;;;;;;5132485;27;1396;-51
2022/10/09 16:18:14;;;;;;;;;;;;;;;;;;5132826;27;1829;-51
2022/10/09 16:20:41;;;;;;;;;;;;;;;;;;5133045;27;2073;-43
2022/10/09 16:23:10;;;;;;;;;;;;;;;;;;5132749;27;1884;-54
2022/10/09 16:25:38;;;;;;;;;;;;;;;;;;5132759;27;1958;-52
2022/10/09 16:28:06;;;;;;;;;;;;;;;;;;5132731;27;1934;-54
2022/10/09 16:30:43;;;;;;;;;;;;;;;;;;5132434;27;1942;-43
2022/10/09 16:33:10;;;;;;;;;;;;;;;;;;5132493;27;1604;-49
2022/10/09 16:35:38;;;;;;;;;;;;;;;;;;5132551;27;2274;-45
2022/10/09 16:38:06;;;;;;;;;;;;;;;;;;5132625;27;1829;-52
2022/10/09 16:40:33;;;;;;;;;;;;;;;;;;5132389;27;2087;-44
2022/10/09 16:43:20;;;;;;;;;;;;;;;;;;5115948;27;1937;-47
2022/10/09 16:45:47;;;;;;;;;;;;;;;;;;5111745;28;1973;-49
2022/10/09 16:48:15;;;;;;;;;;;;;;;;;;5111949;28;1805;-45
2022/10/09 16:50:42;;;;;;;;;;;;;;;;;;5111766;28;1939;-52
2022/10/09 16:53:09;;;;;;;;;;;;;;;;;;5111604;28;1259;-55
2022/10/09 16:55:37;;;;;;;;;;;;;;;;;;5111504;28;1827;-56
2022/10/09 16:58:04;;;;;;;;;;;;;;;;;;5111650;28;2067;-53
2022/10/09 17:00:31;;;;;;;;;;;;;;;;;;5112090;28;1463;-45
2022/10/09 17:02:59;;;;;;;;;;;;;;;;;;5111922;28;1880;-46
2022/10/09 17:05:26;;;;;;;;;;;;;;;;;;5111488;28;2023;-45
2022/10/09 17:07:54;;;;;;;;;;;;;;;;;;5111547;28;2320;-56
2022/10/09 17:10:21;;;;;;;;;;;;;;;;;;5111483;28;1920;-52
2022/10/09 17:12:49;;;;;;;;;;;;;;;;;;5111535;28;1732;-46
2022/10/09 17:15:16;;;;;;;;;;;;;;;;;;5111505;28;1799;-44
2022/10/09 17:17:45;;;;;;;;;;;;;;;;;;5125469;27;2144;-54
2022/10/09 17:20:12;;;;;;;;;;;;;;;;;;5132144;28;2101;-53
2022/10/09 17:22:40;;;;;;;;;;;;;;;;;;5131933;28;1558;-49
2022/10/09 17:25:08;;;;;;;;;;;;;;;;;;5132958;27;2207;-55
2022/10/09 17:27:35;;;;;;;;;;;;;;;;;;5136165;27;1869;-48
2022/10/09 17:30:03;;;;;;;;;;;;;;;;;;5136236;27;1837;-44
2022/10/09 17:32:30;;;;;;;;;;;;;;;;;;5136274;27;1678;-44
2022/10/09 17:34:57;;;;;;;;;;;;;;;;;;5136506;27;2175;-52